Time;durP1;ratioP1;P1;durP2;ratioP2;P2;SDS_P1;SDS_P2;PMS_P1;PMS_P2;Temp;Humidity;BMP_temperature;BMP_pressure;BME280_temperature;BME280_humidity;BME280_pressure;Samples;Min_cycle;Max_cycle;Signal;HPM_P1;HPM_P2
2023/05/28 00:00:13;;;;;;;9.63;4.40;;;;;;;;;;5030414;28;20107;-65
2023/05/28 00:02:59;;;;;;;7.85;4.50;;;;;;;;;;4983288;28;20042;-66
2023/05/28 00:05:26;;;;;;;8.88;4.07;;;;;;;;;;4984685;28;20034;-67
2023/05/28 00:07:52;;;;;;;7.63;4.45;;;;;;;;;;4982844;28;20132;-66
2023/05/28 00:10:19;;;;;;;7.55;3.60;;;;;;;;;;4964010;28;20069;-66
2023/05/28 00:12:46;;;;;;;7.53;3.83;;;;;;;;;;4982156;28;20240;-68
2023/05/28 00:15:12;;;;;;;9.50;3.40;;;;;;;;;;4984255;28;20045;-66
2023/05/28 00:17:40;;;;;;;7.70;3.58;;;;;;;;;;4982375;28;20735;-66
2023/05/28 00:20:07;;;;;;;6.15;3.80;;;;;;;;;;4986340;28;20713;-68
2023/05/28 00:22:35;;;;;;;8.00;4.10;;;;;;;;;;4982595;28;20486;-67
2023/05/28 00:25:03;;;;;;;7.53;3.95;;;;;;;;;;4983931;28;20125;-66
2023/05/28 00:27:30;;;;;;;6.97;3.70;;;;;;;;;;4982729;28;20038;-67
2023/05/28 00:29:57;;;;;;;7.82;4.20;;;;;;;;;;4982292;28;20049;-67
2023/05/28 00:32:24;;;;;;;6.60;3.83;;;;;;;;;;4981866;28;20043;-67
2023/05/28 00:34:50;;;;;;;6.75;4.22;;;;;;;;;;4983686;28;20210;-65
2023/05/28 00:37:17;;;;;;;7.78;4.30;;;;;;;;;;4981401;28;20070;-65
2023/05/28 00:39:44;;;;;;;6.82;3.72;;;;;;;;;;4988051;28;20037;-65
2023/05/28 00:42:12;;;;;;;7.55;4.07;;;;;;;;;;5017012;28;20041;-66
2023/05/28 00:44:39;;;;;;;8.38;4.03;;;;;;;;;;5019235;28;21100;-66
2023/05/28 00:47:07;;;;;;;8.90;4.18;;;;;;;;;;5013365;28;20037;-65
2023/05/28 00:49:34;;;;;;;9.68;4.38;;;;;;;;;;5011629;28;20037;-65
2023/05/28 00:52:02;;;;;;;7.43;4.13;;;;;;;;;;5009486;28;20042;-68
2023/05/28 00:54:28;;;;;;;8.85;3.95;;;;;;;;;;5011116;28;20045;-65
2023/05/28 00:56:57;;;;;;;7.55;4.32;;;;;;;;;;5008700;28;20128;-66
2023/05/28 00:59:27;;;;;;;6.85;4.05;;;;;;;;;;5009364;28;20041;-66
2023/05/28 01:01:54;;;;;;;8.63;4.13;;;;;;;;;;5010752;28;20045;-66
2023/05/28 01:04:22;;;;;;;7.05;4.03;;;;;;;;;;5008936;28;20045;-64
2023/05/28 01:06:49;;;;;;;7.85;4.00;;;;;;;;;;5009980;28;20038;-65
2023/05/28 01:09:15;;;;;;;7.53;3.75;;;;;;;;;;5012654;28;20033;-64
2023/05/28 01:11:44;;;;;;;9.70;4.32;;;;;;;;;;5010226;28;20136;-66
2023/05/28 01:14:11;;;;;;;15.05;4.90;;;;;;;;;;5015637;28;20052;-68
2023/05/28 01:16:38;;;;;;;8.65;4.05;;;;;;;;;;5010246;28;20205;-68
2023/05/28 01:19:08;;;;;;;7.13;3.78;;;;;;;;;;5010496;28;20044;-66
2023/05/28 01:21:35;;;;;;;6.97;3.78;;;;;;;;;;5008692;28;20049;-67
2023/05/28 01:24:02;;;;;;;9.60;4.70;;;;;;;;;;5009360;28;20426;-66
2023/05/28 01:26:29;;;;;;;11.50;4.40;;;;;;;;;;5009003;28;20494;-68
2023/05/28 01:28:56;;;;;;;8.82;4.43;;;;;;;;;;5023036;28;20750;-66
2023/05/28 01:31:22;;;;;;;8.82;4.00;;;;;;;;;;5010651;28;20048;-66
2023/05/28 01:33:49;;;;;;;6.18;4.03;;;;;;;;;;5009512;28;20073;-66
2023/05/28 01:36:28;;;;;;;8.60;4.03;;;;;;;;;;5019394;28;20042;-66
2023/05/28 01:38:58;;;;;;;7.18;4.05;;;;;;;;;;5009426;28;20041;-66
2023/05/28 01:41:26;;;;;;;7.05;3.50;;;;;;;;;;5009513;28;20410;-65
2023/05/28 01:44:13;;;;;;;8.70;3.83;;;;;;;;;;4981043;28;20046;-67
2023/05/28 01:46:40;;;;;;;6.13;3.10;;;;;;;;;;4980408;28;20051;-67
2023/05/28 01:49:07;;;;;;;7.13;3.35;;;;;;;;;;4981043;28;20608;-65
2023/05/28 01:51:34;;;;;;;8.35;3.63;;;;;;;;;;4976040;28;20231;-66
2023/05/28 01:54:01;;;;;;;8.27;3.88;;;;;;;;;;4967829;28;20053;-64
2023/05/28 01:56:28;;;;;;;6.68;3.58;;;;;;;;;;4980447;28;20042;-64
2023/05/28 01:58:54;;;;;;;8.20;3.70;;;;;;;;;;4980785;28;20105;-64
2023/05/28 02:01:30;;;;;;;5.82;3.45;;;;;;;;;;4978083;28;20103;-64
2023/05/28 02:03:57;;;;;;;5.80;3.30;;;;;;;;;;4982038;28;20054;-65
2023/05/28 02:06:24;;;;;;;6.75;3.45;;;;;;;;;;4980797;28;20518;-65
2023/05/28 02:08:51;;;;;;;6.63;2.92;;;;;;;;;;4983115;28;20049;-64
2023/05/28 02:11:17;;;;;;;6.38;3.33;;;;;;;;;;4981734;28;20046;-66
2023/05/28 02:13:44;;;;;;;5.60;3.05;;;;;;;;;;4983542;28;20536;-64
2023/05/28 02:16:11;;;;;;;7.20;3.92;;;;;;;;;;5006888;28;20157;-64
2023/05/28 02:18:39;;;;;;;7.35;3.92;;;;;;;;;;5010216;28;20033;-64
2023/05/28 02:21:06;;;;;;;5.97;3.28;;;;;;;;;;5009039;28;20132;-64
2023/05/28 02:23:32;;;;;;;6.95;3.28;;;;;;;;;;5010109;28;20136;-64
2023/05/28 02:26:00;;;;;;;5.55;3.20;;;;;;;;;;5012801;28;20144;-65
2023/05/28 02:28:27;;;;;;;11.18;3.65;;;;;;;;;;5011161;28;20060;-64
2023/05/28 02:30:54;;;;;;;8.65;3.70;;;;;;;;;;5011471;28;20072;-64
2023/05/28 02:33:21;;;;;;;8.48;3.83;;;;;;;;;;5011535;28;20048;-64
2023/05/28 02:35:48;;;;;;;5.20;3.25;;;;;;;;;;5011132;28;20157;-65
2023/05/28 02:38:15;;;;;;;6.60;3.50;;;;;;;;;;5012557;28;20119;-64
2023/05/28 02:40:42;;;;;;;7.38;4.00;;;;;;;;;;5011725;28;20216;-64
2023/05/28 02:43:08;;;;;;;6.30;3.63;;;;;;;;;;5012610;28;20156;-64
2023/05/28 02:45:35;;;;;;;6.10;3.55;;;;;;;;;;5012406;28;20041;-65
2023/05/28 02:48:01;;;;;;;10.05;3.28;;;;;;;;;;5012934;28;20049;-64
2023/05/28 02:50:28;;;;;;;6.68;3.00;;;;;;;;;;5011637;28;20057;-64
2023/05/28 02:52:56;;;;;;;8.18;3.38;;;;;;;;;;5012673;28;20125;-64
2023/05/28 02:55:22;;;;;;;10.45;3.50;;;;;;;;;;5012359;28;20044;-65
2023/05/28 02:57:49;;;;;;;11.30;4.00;;;;;;;;;;5012255;28;20046;-66
2023/05/28 03:00:16;;;;;;;6.53;3.58;;;;;;;;;;5011439;28;20046;-65
2023/05/28 03:02:42;;;;;;;6.57;3.45;;;;;;;;;;5013021;28;20057;-64
2023/05/28 03:05:09;;;;;;;7.30;3.50;;;;;;;;;;5012524;28;20502;-63
2023/05/28 03:07:36;;;;;;;5.05;2.92;;;;;;;;;;5010645;28;20041;-65
2023/05/28 03:10:03;;;;;;;6.28;2.90;;;;;;;;;;5012271;28;20050;-65
2023/05/28 03:12:30;;;;;;;6.18;3.38;;;;;;;;;;5013475;28;20049;-65
2023/05/28 03:14:57;;;;;;;5.72;3.08;;;;;;;;;;5029421;28;20655;-66
2023/05/28 03:17:23;;;;;;;6.68;3.58;;;;;;;;;;5030381;28;20044;-64
2023/05/28 03:19:50;;;;;;;7.28;3.47;;;;;;;;;;5033325;28;20033;-63
2023/05/28 03:22:17;;;;;;;6.60;3.40;;;;;;;;;;5031812;28;20087;-66
2023/05/28 03:24:43;;;;;;;5.30;2.90;;;;;;;;;;5032065;28;20037;-64
2023/05/28 03:27:10;;;;;;;6.80;3.08;;;;;;;;;;5031078;28;20794;-71
2023/05/28 03:29:36;;;;;;;5.97;3.42;;;;;;;;;;5021548;28;20033;-71
2023/05/28 03:32:03;;;;;;;7.35;3.38;;;;;;;;;;5025680;28;20037;-70
2023/05/28 03:34:30;;;;;;;9.27;3.88;;;;;;;;;;5030442;28;20135;-70
2023/05/28 03:36:57;;;;;;;9.10;3.60;;;;;;;;;;5029188;28;20374;-70
2023/05/28 03:39:23;;;;;;;7.82;3.78;;;;;;;;;;5030055;28;20705;-70
2023/05/28 03:41:50;;;;;;;7.10;3.40;;;;;;;;;;5031050;28;20029;-70
2023/05/28 03:44:17;;;;;;;9.13;3.60;;;;;;;;;;5031364;28;20041;-69
2023/05/28 03:46:43;;;;;;;6.72;3.22;;;;;;;;;;5030886;28;20511;-71
2023/05/28 03:49:10;;;;;;;9.35;3.40;;;;;;;;;;5030328;28;20091;-70
2023/05/28 03:51:37;;;;;;;6.13;3.53;;;;;;;;;;5029742;28;20038;-70
2023/05/28 03:54:04;;;;;;;9.38;3.65;;;;;;;;;;5020218;28;20038;-69
2023/05/28 03:56:33;;;;;;;7.28;3.53;;;;;;;;;;5029796;28;20034;-69
2023/05/28 03:59:00;;;;;;;5.78;3.17;;;;;;;;;;5030431;28;20078;-70
2023/05/28 04:01:26;;;;;;;6.75;3.38;;;;;;;;;;5028809;28;20044;-69
2023/05/28 04:03:55;;;;;;;6.45;3.25;;;;;;;;;;5030334;28;20048;-69
2023/05/28 04:06:22;;;;;;;5.35;3.25;;;;;;;;;;5029635;28;20045;-69
2023/05/28 04:08:49;;;;;;;7.43;3.88;;;;;;;;;;5020285;28;20128;-69
2023/05/28 04:11:16;;;;;;;9.02;3.47;;;;;;;;;;5031147;28;20793;-70
2023/05/28 04:13:42;;;;;;;7.78;4.00;;;;;;;;;;5030194;28;20576;-70
2023/05/28 04:16:09;;;;;;;8.07;3.97;;;;;;;;;;5029099;28;20041;-70
2023/05/28 04:18:36;;;;;;;7.90;4.13;;;;;;;;;;5028631;28;20033;-70
2023/05/28 04:21:02;;;;;;;10.80;3.40;;;;;;;;;;5030671;28;20167;-70
2023/05/28 04:23:30;;;;;;;7.53;3.75;;;;;;;;;;5026436;28;20552;-69
2023/05/28 04:25:56;;;;;;;6.13;3.50;;;;;;;;;;5030934;28;20098;-69
2023/05/28 04:28:27;;;;;;;6.50;3.67;;;;;;;;;;5029936;28;20037;-70
2023/05/28 04:31:00;;;;;;;8.05;3.50;;;;;;;;;;5025638;28;20414;-70
2023/05/28 04:33:30;;;;;;;5.90;3.38;;;;;;;;;;5009673;28;20357;-71
2023/05/28 04:35:57;;;;;;;8.52;3.55;;;;;;;;;;5029984;28;20044;-69
2023/05/28 04:38:25;;;;;;;6.10;3.35;;;;;;;;;;5029253;28;20042;-68
2023/05/28 04:40:53;;;;;;;7.20;3.50;;;;;;;;;;5030667;28;20042;-68
2023/05/28 04:43:21;;;;;;;7.47;3.75;;;;;;;;;;5030602;28;20045;-69
2023/05/28 04:45:48;;;;;;;6.53;3.58;;;;;;;;;;5029977;28;20638;-68
2023/05/28 04:48:14;;;;;;;6.05;3.30;;;;;;;;;;5028974;28;20052;-69
2023/05/28 04:50:41;;;;;;;7.03;3.45;;;;;;;;;;5028857;28;20051;-69
2023/05/28 04:53:08;;;;;;;6.88;3.50;;;;;;;;;;4987020;28;20046;-69
2023/05/28 04:55:35;;;;;;;6.93;3.58;;;;;;;;;;4987215;28;20043;-69
2023/05/28 04:58:01;;;;;;;9.38;3.65;;;;;;;;;;4987337;28;20045;-70
2023/05/28 05:00:30;;;;;;;6.88;3.60;;;;;;;;;;4988332;28;20045;-69
2023/05/28 05:02:57;;;;;;;7.72;3.92;;;;;;;;;;4986060;28;20058;-69
2023/05/28 05:05:24;;;;;;;8.75;3.67;;;;;;;;;;4986107;28;20042;-68
2023/05/28 05:07:51;;;;;;;9.25;3.92;;;;;;;;;;4987310;28;20529;-69
2023/05/28 05:10:19;;;;;;;6.68;3.67;;;;;;;;;;4988612;28;20149;-68
2023/05/28 05:12:45;;;;;;;6.65;3.60;;;;;;;;;;4972188;28;20061;-68
2023/05/28 05:15:12;;;;;;;7.30;4.03;;;;;;;;;;4988302;28;20054;-68
2023/05/28 05:17:39;;;;;;;8.60;3.42;;;;;;;;;;4988027;28;20046;-69
2023/05/28 05:20:06;;;;;;;6.97;3.80;;;;;;;;;;4988930;28;20049;-71
2023/05/28 05:22:33;;;;;;;9.15;3.80;;;;;;;;;;4985356;28;20137;-70
2023/05/28 05:24:59;;;;;;;7.32;3.80;;;;;;;;;;4985430;28;20793;-69
2023/05/28 05:27:26;;;;;;;7.43;4.03;;;;;;;;;;4986169;28;20311;-69
2023/05/28 05:29:53;;;;;;;7.88;4.18;;;;;;;;;;4991165;28;20397;-69
2023/05/28 05:32:20;;;;;;;9.82;4.25;;;;;;;;;;5008978;28;20052;-69
2023/05/28 05:34:46;;;;;;;7.63;3.70;;;;;;;;;;5021214;28;20068;-67
2023/05/28 05:37:13;;;;;;;8.02;3.88;;;;;;;;;;5009783;28;20042;-68
2023/05/28 05:39:39;;;;;;;11.20;3.83;;;;;;;;;;5009519;28;21025;-68
2023/05/28 05:42:06;;;;;;;10.30;4.10;;;;;;;;;;5010379;28;20042;-68
2023/05/28 05:44:33;;;;;;;8.27;4.38;;;;;;;;;;5010346;28;20108;-68
2023/05/28 05:46:59;;;;;;;7.55;4.15;;;;;;;;;;5009833;28;20330;-68
2023/05/28 05:49:26;;;;;;;7.50;4.10;;;;;;;;;;5007739;28;20033;-68
2023/05/28 05:51:53;;;;;;;6.53;4.07;;;;;;;;;;5009277;28;20375;-69
2023/05/28 05:54:19;;;;;;;9.10;4.38;;;;;;;;;;5008266;28;20085;-69
2023/05/28 05:56:46;;;;;;;11.48;4.45;;;;;;;;;;5009643;28;20176;-68
2023/05/28 05:59:13;;;;;;;7.55;4.60;;;;;;;;;;5009136;28;20033;-70
2023/05/28 06:01:39;;;;;;;9.77;4.32;;;;;;;;;;5023390;28;20056;-69
2023/05/28 06:04:06;;;;;;;8.25;4.55;;;;;;;;;;5020828;28;20108;-68
2023/05/28 06:06:38;;;;;;;7.15;3.67;;;;;;;;;;5021627;28;20042;-67
2023/05/28 06:09:06;;;;;;;8.98;4.88;;;;;;;;;;5029787;28;20053;-69
2023/05/28 06:11:33;;;;;;;9.40;4.18;;;;;;;;;;5010441;28;20606;-68
2023/05/28 06:14:01;;;;;;;10.95;4.57;;;;;;;;;;5007055;28;20054;-69
2023/05/28 06:16:28;;;;;;;8.15;4.38;;;;;;;;;;5007409;28;20038;-67
2023/05/28 06:18:56;;;;;;;8.35;4.65;;;;;;;;;;5009255;28;20033;-67
2023/05/28 06:21:24;;;;;;;8.05;4.10;;;;;;;;;;5009492;28;20052;-67
2023/05/28 06:23:50;;;;;;;9.10;4.70;;;;;;;;;;5008397;28;20053;-67
2023/05/28 06:26:17;;;;;;;10.07;4.97;;;;;;;;;;5002299;28;20423;-66
2023/05/28 06:28:44;;;;;;;9.50;4.90;;;;;;;;;;5015538;28;20052;-69
2023/05/28 06:31:30;;;;;;;7.88;4.63;;;;;;;;;;4985802;28;20120;-68
2023/05/28 06:33:57;;;;;;;9.73;4.45;;;;;;;;;;4986493;28;20105;-68
2023/05/28 06:36:25;;;;;;;8.77;4.00;;;;;;;;;;4983626;28;20046;-67
2023/05/28 06:38:52;;;;;;;7.15;3.83;;;;;;;;;;4973272;28;20045;-68
2023/05/28 06:41:18;;;;;;;10.77;4.15;;;;;;;;;;4988453;28;20199;-67
2023/05/28 06:43:46;;;;;;;9.88;4.40;;;;;;;;;;4986926;28;20696;-69
2023/05/28 06:46:12;;;;;;;10.40;3.85;;;;;;;;;;4985730;28;20045;-68
2023/05/28 06:48:39;;;;;;;7.50;3.78;;;;;;;;;;4982300;28;20046;-69
2023/05/28 06:51:06;;;;;;;9.48;3.97;;;;;;;;;;4984983;28;20048;-70
2023/05/28 06:53:32;;;;;;;7.13;3.88;;;;;;;;;;4986498;28;20121;-69
2023/05/28 06:55:59;;;;;;;7.25;4.03;;;;;;;;;;4986204;28;20050;-70
2023/05/28 06:58:26;;;;;;;7.18;3.80;;;;;;;;;;4967719;28;20046;-68
2023/05/28 07:00:53;;;;;;;6.63;3.67;;;;;;;;;;4985500;28;20046;-68
2023/05/28 07:03:19;;;;;;;7.15;3.40;;;;;;;;;;4975222;28;20050;-69
2023/05/28 07:05:46;;;;;;;6.72;3.75;;;;;;;;;;4984656;28;20072;-68
2023/05/28 07:08:13;;;;;;;7.60;3.88;;;;;;;;;;4989102;28;20075;-66
2023/05/28 07:10:59;;;;;;;8.07;4.07;;;;;;;;;;4971935;28;20047;-67
2023/05/28 07:13:26;;;;;;;7.35;3.80;;;;;;;;;;4973921;28;20046;-66
2023/05/28 07:16:12;;;;;;;9.15;4.60;;;;;;;;;;4964066;28;20055;-67
2023/05/28 07:18:40;;;;;;;7.30;4.22;;;;;;;;;;4975424;28;20058;-68
2023/05/28 07:21:06;;;;;;;8.05;3.65;;;;;;;;;;4974917;28;20057;-70
2023/05/28 07:23:53;;;;;;;8.90;4.00;;;;;;;;;;4920158;29;20070;-67
2023/05/28 07:26:20;;;;;;;8.57;3.92;;;;;;;;;;4921145;29;20042;-68
2023/05/28 07:28:46;;;;;;;9.10;4.00;;;;;;;;;;4921058;29;20040;-68
2023/05/28 07:31:13;;;;;;;7.50;3.60;;;;;;;;;;4917727;29;20035;-67
2023/05/28 07:33:40;;;;;;;6.78;4.15;;;;;;;;;;4921143;29;20206;-67
2023/05/28 07:36:06;;;;;;;7.45;3.67;;;;;;;;;;4905286;29;20060;-67
2023/05/28 07:38:33;;;;;;;7.03;3.83;;;;;;;;;;4904486;29;20425;-68
2023/05/28 07:41:00;;;;;;;10.70;4.35;;;;;;;;;;4893973;29;20044;-68
2023/05/28 07:43:26;;;;;;;8.20;4.47;;;;;;;;;;4925592;28;20047;-67
2023/05/28 07:45:56;;;;;;;9.60;4.32;;;;;;;;;;4929951;28;20545;-67
2023/05/28 07:48:22;;;;;;;7.60;4.25;;;;;;;;;;4949861;28;20456;-67
2023/05/28 07:50:49;;;;;;;11.95;4.10;;;;;;;;;;4953765;28;20059;-67
2023/05/28 07:53:17;;;;;;;7.43;4.15;;;;;;;;;;4952321;28;20963;-66
2023/05/28 07:55:43;;;;;;;8.95;4.47;;;;;;;;;;4953108;28;20051;-67
2023/05/28 07:58:12;;;;;;;8.13;4.20;;;;;;;;;;4949703;28;20085;-67
2023/05/28 08:00:39;;;;;;;6.75;3.72;;;;;;;;;;4960186;28;20600;-68
2023/05/28 08:03:06;;;;;;;8.40;4.18;;;;;;;;;;4989236;28;20045;-66
2023/05/28 08:05:33;;;;;;;8.15;4.75;;;;;;;;;;4990199;28;20085;-66
2023/05/28 08:08:00;;;;;;;8.77;4.90;;;;;;;;;;5010143;28;20042;-67
2023/05/28 08:10:28;;;;;;;7.78;4.55;;;;;;;;;;5011095;28;20124;-67
2023/05/28 08:12:55;;;;;;;10.57;4.05;;;;;;;;;;5012554;28;20049;-67
2023/05/28 08:15:22;;;;;;;8.57;4.47;;;;;;;;;;5020777;28;20047;-67
2023/05/28 08:17:48;;;;;;;11.55;5.00;;;;;;;;;;5031793;28;20060;-67
2023/05/28 08:20:15;;;;;;;8.88;4.93;;;;;;;;;;5030207;28;21754;-68
2023/05/28 08:22:42;;;;;;;10.48;4.60;;;;;;;;;;5031152;28;20184;-67
2023/05/28 08:25:09;;;;;;;8.73;5.25;;;;;;;;;;5030521;28;20091;-67
2023/05/28 08:27:36;;;;;;;12.98;5.00;;;;;;;;;;5031585;28;20059;-66
2023/05/28 08:30:02;;;;;;;9.68;5.00;;;;;;;;;;5031725;28;20045;-67
2023/05/28 08:32:29;;;;;;;10.95;5.05;;;;;;;;;;5029426;28;20041;-67
2023/05/28 08:34:55;;;;;;;10.00;4.95;;;;;;;;;;5030976;28;20045;-67
2023/05/28 08:37:23;;;;;;;8.68;4.45;;;;;;;;;;5031606;28;20048;-67
2023/05/28 08:39:50;;;;;;;10.95;4.95;;;;;;;;;;5031075;28;20127;-68
2023/05/28 08:42:16;;;;;;;9.23;4.80;;;;;;;;;;5031266;28;20041;-68
2023/05/28 08:44:43;;;;;;;10.68;5.22;;;;;;;;;;5031550;28;20042;-68
2023/05/28 08:47:10;;;;;;;10.63;5.20;;;;;;;;;;5029556;28;20040;-67
2023/05/28 08:49:42;;;;;;;11.20;5.07;;;;;;;;;;5030380;28;20456;-67
2023/05/28 08:52:09;;;;;;;10.00;5.25;;;;;;;;;;5031492;28;20047;-67
2023/05/28 08:54:36;;;;;;;15.00;5.20;;;;;;;;;;5026659;28;20043;-67
2023/05/28 08:57:03;;;;;;;11.05;5.20;;;;;;;;;;5028965;28;20072;-68
2023/05/28 08:59:31;;;;;;;11.25;5.43;;;;;;;;;;5029120;28;20041;-67
2023/05/28 09:01:57;;;;;;;10.68;5.47;;;;;;;;;;5028421;28;20140;-68
2023/05/28 09:04:24;;;;;;;13.60;6.13;;;;;;;;;;5029137;28;20131;-67
2023/05/28 09:06:51;;;;;;;14.95;5.40;;;;;;;;;;5030548;28;21780;-68
2023/05/28 09:09:18;;;;;;;11.10;5.55;;;;;;;;;;5032120;28;20077;-67
2023/05/28 09:11:45;;;;;;;13.43;5.80;;;;;;;;;;5012706;28;20041;-66
2023/05/28 09:14:12;;;;;;;12.32;5.80;;;;;;;;;;5037776;28;20394;-67
2023/05/28 09:16:43;;;;;;;12.00;5.97;;;;;;;;;;5008434;28;22769;-67
2023/05/28 09:19:10;;;;;;;12.70;5.60;;;;;;;;;;5011365;28;20046;-66
2023/05/28 09:21:37;;;;;;;12.00;6.30;;;;;;;;;;5009729;28;20052;-68
2023/05/28 09:24:05;;;;;;;8.85;5.47;;;;;;;;;;5008694;28;20985;-68
2023/05/28 09:26:32;;;;;;;11.10;6.10;;;;;;;;;;5007059;28;20045;-69
2023/05/28 09:28:59;;;;;;;11.75;6.07;;;;;;;;;;5009186;28;20052;-68
2023/05/28 09:31:32;;;;;;;10.27;5.63;;;;;;;;;;5009308;28;20045;-68
2023/05/28 09:34:02;;;;;;;11.07;5.78;;;;;;;;;;5008653;28;20098;-67
2023/05/28 09:36:32;;;;;;;14.43;6.45;;;;;;;;;;5008788;28;20073;-67
2023/05/28 09:38:59;;;;;;;11.15;5.93;;;;;;;;;;5009532;28;20058;-67
2023/05/28 09:41:33;;;;;;;11.43;6.07;;;;;;;;;;5009969;28;20052;-68
2023/05/28 09:44:01;;;;;;;11.88;6.10;;;;;;;;;;5008182;28;20582;-67
2023/05/28 09:46:31;;;;;;;11.60;6.53;;;;;;;;;;5018703;28;20052;-66
2023/05/28 09:48:58;;;;;;;11.82;6.57;;;;;;;;;;5019372;28;20390;-67
2023/05/28 09:51:26;;;;;;;10.77;5.75;;;;;;;;;;5008444;28;20209;-67
2023/05/28 09:54:00;;;;;;;14.63;6.93;;;;;;;;;;5009349;28;20045;-66
2023/05/28 09:56:33;;;;;;;13.05;6.55;;;;;;;;;;5010525;28;20135;-66
2023/05/28 09:58:59;;;;;;;;;;;;;;;;;;5010727;28;20500;-66
2023/05/28 10:01:31;;;;;;;16.85;6.13;;;;;;;;;;5009141;28;19924;-66
2023/05/28 10:04:02;;;;;;;11.50;5.78;;;;;;;;;;5009668;28;20050;-66
2023/05/28 10:06:30;;;;;;;11.00;6.18;;;;;;;;;;5008604;28;20037;-66
2023/05/28 10:08:57;;;;;;;10.98;5.72;;;;;;;;;;5008692;28;20125;-66
2023/05/28 10:11:26;;;;;;;11.65;6.13;;;;;;;;;;5020603;28;20123;-66
2023/05/28 10:13:54;;;;;;;10.27;5.78;;;;;;;;;;5019784;28;20053;-66
2023/05/28 10:16:21;;;;;;;9.43;5.93;;;;;;;;;;5028374;28;20053;-68
2023/05/28 10:18:48;;;;;;;10.07;5.28;;;;;;;;;;5028300;28;20056;-67
2023/05/28 10:21:15;;;;;;;13.27;5.63;;;;;;;;;;5029041;28;20044;-66
2023/05/28 10:23:42;;;;;;;9.35;5.43;;;;;;;;;;5027080;28;20447;-61
2023/05/28 10:26:09;;;;;;;10.38;6.18;;;;;;;;;;5028365;28;20075;-61
2023/05/28 10:28:36;;;;;;;10.18;5.90;;;;;;;;;;5026392;28;20033;-63
2023/05/28 10:31:04;;;;;;;10.38;5.65;;;;;;;;;;5027883;28;20087;-61
2023/05/28 10:33:31;;;;;;;10.75;5.60;;;;;;;;;;5026500;28;20099;-65
2023/05/28 10:36:03;;;;;;;9.00;5.15;;;;;;;;;;5028391;28;20050;-62
2023/05/28 10:38:30;;;;;;;9.50;5.45;;;;;;;;;;5028285;28;20072;-63
2023/05/28 10:41:03;;;;;;;10.52;5.43;;;;;;;;;;5028401;28;20354;-63
2023/05/28 10:43:39;;;;;;;8.45;4.80;;;;;;;;;;5026413;28;20637;-59
2023/05/28 10:46:19;;;;;;;9.15;5.20;;;;;;;;;;5031393;28;20044;-59
2023/05/28 10:49:04;;;;;;;8.43;4.80;;;;;;;;;;5031891;28;20397;-64
2023/05/28 10:51:49;;;;;;;9.23;4.90;;;;;;;;;;5031550;28;20068;-65
2023/05/28 10:54:25;;;;;;;10.93;5.72;;;;;;;;;;5030440;28;20033;-64
2023/05/28 10:57:11;;;;;;;12.85;5.32;;;;;;;;;;5031982;28;20033;-64
2023/05/28 10:59:43;;;;;;;9.98;5.20;;;;;;;;;;5030255;28;20037;-64
2023/05/28 11:02:10;;;;;;;10.52;5.45;;;;;;;;;;5030971;28;20049;-63
2023/05/28 11:04:39;;;;;;;9.18;5.05;;;;;;;;;;5029828;28;20048;-60
2023/05/28 11:07:06;;;;;;;10.38;5.40;;;;;;;;;;5030500;28;20037;-65
2023/05/28 11:09:33;;;;;;;8.82;5.13;;;;;;;;;;5030027;28;20055;-65
2023/05/28 11:12:01;;;;;;;9.10;5.70;;;;;;;;;;5032164;28;20029;-66
2023/05/28 11:14:37;;;;;;;10.65;5.43;;;;;;;;;;5029163;28;20053;-67
2023/05/28 11:17:13;;;;;;;10.85;6.05;;;;;;;;;;5025322;28;20037;-68
2023/05/28 11:19:41;;;;;;;9.93;5.68;;;;;;;;;;5033763;28;20049;-68
2023/05/28 11:22:08;;;;;;;10.85;5.40;;;;;;;;;;5030636;28;20034;-67
2023/05/28 11:24:55;;;;;;;12.85;6.30;;;;;;;;;;5031737;28;20036;-67
2023/05/28 11:27:23;;;;;;;11.95;6.45;;;;;;;;;;5032220;28;20041;-67
2023/05/28 11:29:50;;;;;;;11.93;6.35;;;;;;;;;;5032087;28;20038;-67
2023/05/28 11:32:19;;;;;;;13.05;6.35;;;;;;;;;;5031898;28;20122;-68
2023/05/28 11:34:47;;;;;;;13.25;6.40;;;;;;;;;;5029865;28;20066;-68
2023/05/28 11:37:14;;;;;;;12.57;6.38;;;;;;;;;;5031768;28;20442;-67
2023/05/28 11:39:50;;;;;;;11.57;6.43;;;;;;;;;;5030252;28;20041;-66
2023/05/28 11:42:20;;;;;;;11.40;5.90;;;;;;;;;;5010530;28;20039;-67
2023/05/28 11:44:47;;;;;;;11.70;6.63;;;;;;;;;;5011024;28;20115;-67
2023/05/28 11:47:13;;;;;;;11.05;6.18;;;;;;;;;;5021031;28;20036;-66
2023/05/28 11:49:40;;;;;;;12.65;6.53;;;;;;;;;;5028229;28;20144;-66
2023/05/28 11:52:27;;;;;;;11.40;6.25;;;;;;;;;;4980288;28;20042;-66
2023/05/28 11:54:55;;;;;;;11.98;6.60;;;;;;;;;;4984113;28;20046;-66
2023/05/28 11:57:23;;;;;;;13.23;6.90;;;;;;;;;;4983381;28;20100;-66
2023/05/28 12:00:15;;;;;;;14.02;6.47;;;;;;;;;;4978696;28;20054;-68
2023/05/28 12:02:45;;;;;;;12.27;6.57;;;;;;;;;;4982398;28;20681;-66
2023/05/28 12:05:12;;;;;;;10.27;5.80;;;;;;;;;;4983772;28;20057;-67
2023/05/28 12:07:45;;;;;;;11.68;6.65;;;;;;;;;;4985481;28;20038;-67
2023/05/28 12:10:13;;;;;;;11.90;6.35;;;;;;;;;;4979782;28;20046;-61
2023/05/28 12:12:50;;;;;;;11.77;7.00;;;;;;;;;;4983446;28;20049;-63
2023/05/28 12:15:17;;;;;;;15.73;9.25;;;;;;;;;;4973768;28;20057;-64
2023/05/28 12:17:46;;;;;;;12.23;7.18;;;;;;;;;;4981812;28;20073;-64
2023/05/28 12:20:13;;;;;;;12.13;6.60;;;;;;;;;;4984148;28;20035;-64
2023/05/28 12:22:42;;;;;;;13.75;7.38;;;;;;;;;;4991007;28;20232;-66
2023/05/28 12:25:09;;;;;;;14.02;6.40;;;;;;;;;;5024386;28;20555;-65
2023/05/28 12:27:36;;;;;;;12.57;6.60;;;;;;;;;;5022697;28;20098;-66
2023/05/28 12:30:06;;;;;;;10.20;6.28;;;;;;;;;;5030044;28;20045;-63
2023/05/28 12:32:35;;;;;;;11.00;7.03;;;;;;;;;;5028013;28;20028;-61
2023/05/28 12:35:02;;;;;;;11.27;6.25;;;;;;;;;;5027933;28;20120;-66
2023/05/28 12:37:28;;;;;;;12.02;6.45;;;;;;;;;;5018594;28;20104;-65
2023/05/28 12:39:55;;;;;;;12.82;6.72;;;;;;;;;;5029420;28;20043;-66
2023/05/28 12:42:21;;;;;;;12.40;7.25;;;;;;;;;;5027257;28;20511;-68
2023/05/28 12:44:48;;;;;;;13.05;7.22;;;;;;;;;;5030288;28;20068;-67
2023/05/28 12:47:15;;;;;;;13.18;7.10;;;;;;;;;;5030597;28;20038;-67
2023/05/28 12:49:41;;;;;;;13.02;6.90;;;;;;;;;;5030138;28;20122;-68
2023/05/28 12:52:08;;;;;;;14.32;7.40;;;;;;;;;;5028020;28;20052;-67
2023/05/28 12:54:35;;;;;;;11.13;6.85;;;;;;;;;;5028243;28;20129;-69
2023/05/28 12:57:02;;;;;;;12.57;7.07;;;;;;;;;;5030279;28;20676;-66
2023/05/28 12:59:30;;;;;;;11.38;6.75;;;;;;;;;;5029321;28;20048;-67
2023/05/28 13:02:15;;;;;;;12.38;6.55;;;;;;;;;;4983766;28;20577;-67
2023/05/28 13:04:42;;;;;;;16.40;7.32;;;;;;;;;;4982674;28;20054;-67
2023/05/28 13:07:09;;;;;;;13.68;6.68;;;;;;;;;;4983039;28;20046;-66
2023/05/28 13:09:36;;;;;;;13.90;7.53;;;;;;;;;;4979829;28;20046;-64
2023/05/28 13:12:03;;;;;;;13.05;7.13;;;;;;;;;;4982327;28;20030;-66
2023/05/28 13:14:32;;;;;;;13.93;7.30;;;;;;;;;;4979750;28;20169;-68
2023/05/28 13:16:59;;;;;;;13.43;6.55;;;;;;;;;;4982151;28;20045;-65
2023/05/28 13:19:45;;;;;;;12.98;6.57;;;;;;;;;;4928624;28;20130;-66
2023/05/28 13:22:13;;;;;;;11.68;6.63;;;;;;;;;;4930747;29;20039;-66
2023/05/28 13:24:40;;;;;;;10.85;6.38;;;;;;;;;;4919379;29;20040;-67
2023/05/28 13:27:06;;;;;;;13.35;6.68;;;;;;;;;;4930470;28;20869;-66
2023/05/28 13:29:33;;;;;;;14.57;6.70;;;;;;;;;;4927748;28;20118;-66
2023/05/28 13:32:00;;;;;;;11.38;6.68;;;;;;;;;;4929472;28;20047;-65
2023/05/28 13:34:26;;;;;;;10.48;6.65;;;;;;;;;;4927094;29;20196;-67
2023/05/28 13:36:53;;;;;;;10.07;6.18;;;;;;;;;;4928336;29;20066;-66
2023/05/28 13:39:21;;;;;;;10.90;6.22;;;;;;;;;;4942883;28;20129;-66
2023/05/28 13:41:49;;;;;;;11.52;5.70;;;;;;;;;;4980849;28;20481;-66
2023/05/28 13:44:16;;;;;;;12.07;6.05;;;;;;;;;;4967088;28;20438;-67
2023/05/28 13:46:42;;;;;;;10.55;5.72;;;;;;;;;;4983238;28;20426;-67
2023/05/28 13:49:09;;;;;;;10.60;6.35;;;;;;;;;;4982461;28;20049;-66
2023/05/28 13:51:39;;;;;;;8.95;5.70;;;;;;;;;;4980079;28;20798;-67
2023/05/28 13:54:07;;;;;;;13.18;5.47;;;;;;;;;;4981767;28;20038;-66
2023/05/28 13:56:34;;;;;;;10.88;5.72;;;;;;;;;;4979331;28;20045;-66
2023/05/28 13:59:01;;;;;;;8.20;5.00;;;;;;;;;;5011467;28;20041;-66
2023/05/28 14:01:28;;;;;;;9.15;5.30;;;;;;;;;;5021986;28;20075;-66
2023/05/28 14:03:54;;;;;;;14.35;6.13;;;;;;;;;;5028917;28;20053;-66
2023/05/28 14:06:21;;;;;;;10.10;5.43;;;;;;;;;;5023057;28;20045;-66
2023/05/28 14:08:48;;;;;;;8.52;5.05;;;;;;;;;;5028662;28;20036;-66
2023/05/28 14:11:14;;;;;;;13.77;6.30;;;;;;;;;;5022932;28;20098;-67
2023/05/28 14:13:41;;;;;;;10.18;5.57;;;;;;;;;;5026488;28;20111;-67
2023/05/28 14:16:07;;;;;;;12.02;5.53;;;;;;;;;;5028027;28;20041;-66
2023/05/28 14:18:34;;;;;;;9.15;5.05;;;;;;;;;;5028347;28;20049;-67
2023/05/28 14:21:01;;;;;;;11.43;5.50;;;;;;;;;;5014080;28;20038;-67
2023/05/28 14:23:28;;;;;;;11.82;5.55;;;;;;;;;;5031258;28;20247;-66
2023/05/28 14:25:54;;;;;;;9.68;5.03;;;;;;;;;;5032856;28;20069;-67
2023/05/28 14:28:21;;;;;;;8.45;5.13;;;;;;;;;;5033440;28;20103;-67
2023/05/28 14:30:48;;;;;;;10.05;5.65;;;;;;;;;;5014346;28;20222;-67
2023/05/28 14:33:15;;;;;;;7.70;4.97;;;;;;;;;;5033078;28;20441;-66
2023/05/28 14:35:41;;;;;;;8.73;4.88;;;;;;;;;;5030467;28;20049;-67
2023/05/28 14:38:08;;;;;;;8.85;4.80;;;;;;;;;;5026461;28;20875;-68
2023/05/28 14:40:34;;;;;;;8.45;5.35;;;;;;;;;;5029976;28;20040;-68
2023/05/28 14:43:01;;;;;;;8.75;5.00;;;;;;;;;;5030124;28;20375;-68